createdAt,value
2022-07-30T00:00:49.715Z,99.90
2022-07-30T00:03:16.534Z,99.90
2022-07-30T00:05:43.325Z,99.90
2022-07-30T00:08:10.050Z,99.90
2022-07-30T00:10:36.796Z,99.90
2022-07-30T00:13:06.413Z,99.90
2022-07-30T00:15:33.486Z,99.90
2022-07-30T00:18:00.556Z,99.90
2022-07-30T00:20:28.147Z,99.90
2022-07-30T00:22:55.096Z,99.90
2022-07-30T00:25:21.920Z,99.90
2022-07-30T00:27:48.920Z,99.90
2022-07-30T00:30:16.000Z,99.90
2022-07-30T00:32:42.751Z,99.90
2022-07-30T00:35:10.011Z,99.90
2022-07-30T00:37:40.036Z,99.90
2022-07-30T00:40:08.469Z,99.90
2022-07-30T00:42:46.814Z,99.90
2022-07-30T00:45:17.480Z,99.90
2022-07-30T00:47:44.897Z,99.90
2022-07-30T00:50:13.723Z,99.90
2022-07-30T00:52:41.273Z,99.90
2022-07-30T00:55:11.798Z,99.90
2022-07-30T00:57:39.322Z,99.90
2022-07-30T01:00:13.273Z,99.90
2022-07-30T01:02:40.474Z,99.90
2022-07-30T01:05:07.887Z,99.90
2022-07-30T01:07:34.840Z,99.90
2022-07-30T01:10:02.185Z,99.90
2022-07-30T01:12:29.711Z,99.90
2022-07-30T01:14:58.218Z,99.90
2022-07-30T01:17:25.890Z,99.90
2022-07-30T01:19:58.815Z,99.90
2022-07-30T01:22:31.415Z,99.90
2022-07-30T01:25:10.407Z,99.90
2022-07-30T01:28:02.069Z,99.90
2022-07-30T01:30:32.721Z,99.90
2022-07-30T01:33:03.067Z,99.90
2022-07-30T01:35:32.744Z,99.90
2022-07-30T01:38:01.782Z,99.90
2022-07-30T01:40:29.670Z,99.90
2022-07-30T01:42:58.981Z,99.90
2022-07-30T01:45:30.970Z,99.90
2022-07-30T01:48:03.618Z,99.90
2022-07-30T01:50:31.715Z,99.90
2022-07-30T01:53:00.376Z,99.90
2022-07-30T01:55:37.015Z,99.90
2022-07-30T01:58:06.134Z,99.90
2022-07-30T02:00:36.384Z,99.90
2022-07-30T02:03:04.683Z,99.90
2022-07-30T02:05:38.497Z,99.90
2022-07-30T02:08:16.185Z,99.90
2022-07-30T02:10:48.602Z,99.90
2022-07-30T02:13:21.773Z,99.90
2022-07-30T02:16:29.760Z,99.90
2022-07-30T02:19:07.546Z,99.90
2022-07-30T02:21:38.833Z,99.90
2022-07-30T02:24:11.368Z,99.90
2022-07-30T02:26:40.679Z,99.90
2022-07-30T02:29:11.368Z,99.90
2022-07-30T02:31:40.525Z,99.90
2022-07-30T02:34:09.002Z,99.90
2022-07-30T02:36:37.028Z,99.90
2022-07-30T02:39:04.992Z,99.90
2022-07-30T02:41:32.824Z,99.90
2022-07-30T02:44:01.873Z,99.90
2022-07-30T02:46:29.320Z,99.90
2022-07-30T02:48:58.516Z,99.90
2022-07-30T02:51:27.133Z,99.90
2022-07-30T02:53:55.165Z,99.90
2022-07-30T02:56:23.656Z,99.90
2022-07-30T02:58:52.989Z,99.90
2022-07-30T03:01:22.966Z,99.90
2022-07-30T03:03:51.379Z,99.90
2022-07-30T03:06:24.001Z,99.90
2022-07-30T03:08:54.914Z,99.90
2022-07-30T03:11:26.287Z,99.90
2022-07-30T03:13:53.013Z,99.90
2022-07-30T03:16:22.154Z,99.90
2022-07-30T03:18:52.364Z,99.90
2022-07-30T03:21:21.803Z,99.90
2022-07-30T03:23:52.986Z,99.90
2022-07-30T03:26:22.548Z,99.90
2022-07-30T03:28:49.754Z,99.90
2022-07-30T03:31:17.434Z,99.90
2022-07-30T03:33:45.148Z,99.90
2022-07-30T03:36:15.344Z,99.90
2022-07-30T03:38:43.166Z,99.90
2022-07-30T03:41:11.420Z,99.90
2022-07-30T03:43:38.958Z,99.90
2022-07-30T03:46:07.776Z,99.90
2022-07-30T03:48:35.677Z,99.90
2022-07-30T03:51:04.164Z,99.90
2022-07-30T03:53:31.853Z,99.90
2022-07-30T03:55:59.839Z,99.90
2022-07-30T03:58:27.054Z,99.90
2022-07-30T04:00:59.046Z,99.90
2022-07-30T04:03:31.192Z,99.90
2022-07-30T04:05:58.761Z,99.90
2022-07-30T04:08:27.749Z,99.90
2022-07-30T04:10:57.625Z,99.90
2022-07-30T04:13:24.428Z,99.90
2022-07-30T04:16:34.295Z,99.90
2022-07-30T04:18:51.118Z,99.90
2022-07-30T04:21:20.650Z,99.90
2022-07-30T04:24:03.133Z,99.90
2022-07-30T04:26:34.318Z,99.90
2022-07-30T04:29:02.430Z,99.90
2022-07-30T04:31:29.723Z,99.90
2022-07-30T04:33:58.846Z,99.90
2022-07-30T04:36:30.679Z,99.90
2022-07-30T04:38:59.034Z,99.90
2022-07-30T04:41:26.423Z,99.90
2022-07-30T04:43:53.396Z,99.90
2022-07-30T04:46:24.462Z,99.90
2022-07-30T04:48:51.828Z,99.90
2022-07-30T04:51:25.640Z,99.90
2022-07-30T04:53:53.674Z,99.90
2022-07-30T04:56:21.847Z,99.90
2022-07-30T04:58:50.521Z,99.90
2022-07-30T05:01:22.731Z,99.90
2022-07-30T05:03:52.454Z,99.90
2022-07-30T05:06:21.304Z,99.90
2022-07-30T05:08:48.586Z,99.90
2022-07-30T05:11:18.245Z,99.90
2022-07-30T05:13:46.309Z,99.90
2022-07-30T05:16:13.392Z,99.90
2022-07-30T05:18:43.722Z,99.90
2022-07-30T05:21:10.460Z,99.90
2022-07-30T05:23:37.216Z,99.90
2022-07-30T05:26:04.505Z,99.90
2022-07-30T05:28:31.327Z,99.90
2022-07-30T05:30:58.165Z,99.90
2022-07-30T05:33:38.838Z,99.90
2022-07-30T05:36:12.541Z,99.90
2022-07-30T05:38:39.366Z,99.90
2022-07-30T05:41:06.071Z,99.90
2022-07-30T05:43:55.841Z,99.90
2022-07-30T05:46:23.409Z,99.90
2022-07-30T05:48:50.650Z,99.90
2022-07-30T05:51:19.321Z,99.90
2022-07-30T05:53:46.220Z,99.90
2022-07-30T05:56:13.086Z,99.90
2022-07-30T05:58:42.977Z,99.90
2022-07-30T06:01:09.806Z,99.90
2022-07-30T06:03:43.756Z,99.90
2022-07-30T06:06:10.596Z,99.90
2022-07-30T06:08:37.456Z,99.90
2022-07-30T06:11:04.164Z,99.90
2022-07-30T06:13:31.214Z,99.90
2022-07-30T06:15:57.992Z,99.90
2022-07-30T06:18:24.749Z,99.90
2022-07-30T06:21:00.952Z,99.90
2022-07-30T06:23:27.785Z,99.90
2022-07-30T06:25:54.560Z,99.90
2022-07-30T06:28:36.461Z,99.90
2022-07-30T06:31:04.210Z,99.90
2022-07-30T06:33:31.397Z,99.90
2022-07-30T06:35:58.325Z,99.90
2022-07-30T06:38:25.115Z,99.90
2022-07-30T06:40:51.925Z,99.90
2022-07-30T06:43:19.544Z,99.90
2022-07-30T06:45:46.559Z,99.90
2022-07-30T06:48:13.367Z,99.90
2022-07-30T06:50:41.765Z,99.90
2022-07-30T06:53:08.519Z,99.90
2022-07-30T06:55:35.382Z,99.90
2022-07-30T06:58:02.207Z,99.90
2022-07-30T07:00:29.001Z,99.90
2022-07-30T07:02:55.879Z,99.90
2022-07-30T07:05:23.585Z,99.90
2022-07-30T07:07:58.822Z,99.90
2022-07-30T07:10:27.221Z,99.90
2022-07-30T07:12:54.120Z,99.90
2022-07-30T07:15:22.441Z,99.90
2022-07-30T07:18:06.506Z,99.90
2022-07-30T07:20:34.474Z,99.90
2022-07-30T07:23:04.178Z,99.90
2022-07-30T07:25:35.971Z,99.90
2022-07-30T07:28:11.591Z,99.90
2022-07-30T07:30:40.135Z,99.90
2022-07-30T07:33:06.944Z,99.90
2022-07-30T07:35:48.698Z,99.90
2022-07-30T07:38:17.465Z,99.90
2022-07-30T07:40:44.233Z,99.90
2022-07-30T07:43:10.981Z,99.90
2022-07-30T07:45:41.573Z,99.90
2022-07-30T07:48:08.872Z,99.90
2022-07-30T07:50:36.007Z,99.90
2022-07-30T07:53:02.948Z,99.90
2022-07-30T07:55:31.639Z,99.90
2022-07-30T07:57:59.889Z,99.90
2022-07-30T08:00:26.821Z,99.90
2022-07-30T08:02:56.626Z,99.90
2022-07-30T08:05:23.791Z,99.90
2022-07-30T08:07:51.003Z,99.90
2022-07-30T08:10:18.978Z,99.90
2022-07-30T08:12:45.794Z,99.90
2022-07-30T08:15:12.794Z,99.90
2022-07-30T08:17:47.129Z,99.90
2022-07-30T08:20:16.393Z,99.90
2022-07-30T08:22:45.920Z,99.90
2022-07-30T08:25:22.299Z,99.90
2022-07-30T08:27:51.351Z,99.90
2022-07-30T08:30:23.205Z,99.90
2022-07-30T08:32:49.993Z,99.90
2022-07-30T08:35:16.771Z,99.90
2022-07-30T08:37:46.488Z,99.90
2022-07-30T08:40:13.394Z,99.90
2022-07-30T08:42:40.304Z,99.90
2022-07-30T08:45:08.476Z,99.90
2022-07-30T08:47:36.325Z,99.90
2022-07-30T08:50:05.985Z,99.90
2022-07-30T08:52:35.335Z,99.90
2022-07-30T08:55:04.212Z,99.90
2022-07-30T08:57:32.366Z,99.90
2022-07-30T09:00:01.561Z,99.90
2022-07-30T09:02:31.515Z,99.90
2022-07-30T09:04:58.720Z,99.90
2022-07-30T09:07:25.809Z,99.90
2022-07-30T09:09:52.550Z,99.90
2022-07-30T09:12:31.456Z,99.90
2022-07-30T09:15:11.515Z,99.90
2022-07-30T09:17:57.799Z,99.90
2022-07-30T09:20:27.937Z,99.90
2022-07-30T09:22:57.545Z,99.90
2022-07-30T09:25:39.315Z,99.90
2022-07-30T09:28:16.750Z,99.90
2022-07-30T09:30:46.867Z,99.90
2022-07-30T09:33:14.100Z,99.90
2022-07-30T09:35:42.189Z,99.90
2022-07-30T09:38:09.867Z,99.90
2022-07-30T09:40:36.673Z,99.90
2022-07-30T09:43:08.670Z,99.90
2022-07-30T09:45:36.233Z,99.90
2022-07-30T09:48:19.973Z,99.20
2022-07-30T09:50:51.165Z,99.70
2022-07-30T09:53:18.971Z,99.00
2022-07-30T09:55:47.223Z,98.20
2022-07-30T09:58:20.054Z,98.70
2022-07-30T10:00:59.065Z,98.60
2022-07-30T10:03:38.483Z,98.70
2022-07-30T10:06:11.308Z,99.90
2022-07-30T10:08:39.973Z,96.10
2022-07-30T10:11:09.880Z,94.70
2022-07-30T10:13:45.168Z,95.20
2022-07-30T10:16:13.169Z,94.90
2022-07-30T10:18:42.662Z,94.90
2022-07-30T10:21:13.497Z,94.00
2022-07-30T10:23:44.983Z,93.80
2022-07-30T10:26:17.278Z,93.10
2022-07-30T10:28:44.666Z,92.70
2022-07-30T10:31:47.270Z,93.10
2022-07-30T10:33:58.692Z,91.80
2022-07-30T10:36:26.618Z,91.10
2022-07-30T10:38:56.545Z,90.50
2022-07-30T10:41:48.086Z,89.30
2022-07-30T10:44:24.378Z,88.70
2022-07-30T10:47:07.802Z,90.00
2022-07-30T10:49:41.543Z,90.50
2022-07-30T10:52:10.955Z,90.40
2022-07-30T10:54:45.450Z,92.10
2022-07-30T10:57:22.645Z,90.90
2022-07-30T10:59:55.428Z,90.90
2022-07-30T11:02:26.880Z,91.00
2022-07-30T11:05:32.574Z,90.30
2022-07-30T11:08:35.879Z,91.00
2022-07-30T11:11:19.273Z,91.10
2022-07-30T11:13:51.810Z,91.30
2022-07-30T11:16:24.520Z,91.60
2022-07-30T11:19:56.068Z,92.40
2022-07-30T11:22:24.493Z,90.70
2022-07-30T11:24:51.911Z,92.30
2022-07-30T11:27:50.215Z,91.50
2022-07-30T11:30:17.560Z,90.60
2022-07-30T11:32:48.432Z,91.00
2022-07-30T11:35:35.151Z,90.70
2022-07-30T11:38:23.414Z,92.20
2022-07-30T11:40:50.149Z,91.50
2022-07-30T11:43:35.611Z,90.80
2022-07-30T11:46:10.777Z,90.90
2022-07-30T11:48:43.877Z,90.60
2022-07-30T11:51:10.884Z,92.10
2022-07-30T11:53:40.209Z,92.00
2022-07-30T11:56:07.302Z,91.30
2022-07-30T11:58:40.144Z,90.90
2022-07-30T12:01:13.291Z,90.90
2022-07-30T12:03:41.444Z,89.20
2022-07-30T12:06:13.813Z,91.00
2022-07-30T12:08:42.577Z,91.10
2022-07-30T12:11:10.693Z,90.10
2022-07-30T12:13:44.381Z,87.90
2022-07-30T12:16:15.853Z,89.40
2022-07-30T12:18:43.084Z,89.30
2022-07-30T12:21:17.166Z,89.10
2022-07-30T12:24:03.927Z,90.10
2022-07-30T12:26:32.733Z,90.50
2022-07-30T12:29:03.244Z,88.20
2022-07-30T12:31:30.170Z,89.70
2022-07-30T12:33:59.576Z,88.20
2022-07-30T12:36:36.360Z,87.40
2022-07-30T12:39:04.947Z,89.60
2022-07-30T12:42:00.881Z,88.50
2022-07-30T12:44:46.435Z,91.20
2022-07-30T12:47:30.101Z,89.80
2022-07-30T12:50:01.696Z,87.90
2022-07-30T12:52:34.494Z,87.80
2022-07-30T12:55:08.978Z,86.30
2022-07-30T12:57:55.454Z,87.40
2022-07-30T13:00:52.766Z,88.00
2022-07-30T13:03:24.704Z,87.60
2022-07-30T13:05:55.333Z,85.60
2022-07-30T13:08:51.173Z,87.10
2022-07-30T13:11:19.522Z,85.60
2022-07-30T13:13:47.442Z,86.40
2022-07-30T13:16:14.430Z,86.00
2022-07-30T13:18:41.184Z,86.50
2022-07-30T13:21:09.296Z,85.80
2022-07-30T13:23:41.609Z,86.60
2022-07-30T13:26:10.152Z,86.30
2022-07-30T13:28:39.751Z,85.70
2022-07-30T13:31:07.595Z,83.80
2022-07-30T13:33:35.603Z,82.30
2022-07-30T13:36:02.553Z,82.80
2022-07-30T13:38:31.472Z,82.40
2022-07-30T13:41:02.454Z,81.50
2022-07-30T13:43:32.059Z,82.10
2022-07-30T13:46:04.059Z,82.20
2022-07-30T13:48:33.635Z,80.50
2022-07-30T13:51:01.235Z,79.50
2022-07-30T13:53:28.527Z,79.20
2022-07-30T13:55:55.903Z,80.70
2022-07-30T13:58:25.953Z,80.80
2022-07-30T14:00:52.744Z,80.70
2022-07-30T14:03:19.654Z,80.90
2022-07-30T14:05:48.013Z,80.50
2022-07-30T14:08:15.101Z,80.30
2022-07-30T14:10:44.244Z,80.10
2022-07-30T14:13:19.181Z,81.60
2022-07-30T14:15:48.565Z,81.70
2022-07-30T14:18:15.340Z,80.00
2022-07-30T14:20:44.568Z,78.60
2022-07-30T14:23:15.406Z,77.80
2022-07-30T14:25:44.006Z,76.80
2022-07-30T14:28:10.797Z,75.80
2022-07-30T14:30:37.692Z,76.10
2022-07-30T14:33:04.850Z,73.40
2022-07-30T14:35:31.723Z,73.70
2022-07-30T14:37:58.484Z,74.00
2022-07-30T14:40:25.625Z,75.40
2022-07-30T14:42:52.358Z,75.20
2022-07-30T14:45:23.272Z,76.50
2022-07-30T14:47:49.947Z,76.40
2022-07-30T14:50:16.697Z,75.00
2022-07-30T14:52:43.799Z,74.10
2022-07-30T14:55:11.057Z,73.20
2022-07-30T14:57:37.945Z,74.00
2022-07-30T15:00:07.523Z,75.00
2022-07-30T15:02:34.762Z,73.50
2022-07-30T15:05:01.578Z,73.00
2022-07-30T15:07:29.413Z,75.70
2022-07-30T15:10:01.255Z,74.70
2022-07-30T15:12:30.309Z,74.20
2022-07-30T15:14:57.268Z,73.70
2022-07-30T15:17:24.394Z,73.60
2022-07-30T15:19:51.574Z,74.60
2022-07-30T15:22:21.270Z,74.90
2022-07-30T15:24:50.961Z,74.30
2022-07-30T15:27:17.777Z,75.00
2022-07-30T15:29:44.613Z,76.00
2022-07-30T15:32:11.626Z,77.10
2022-07-30T15:34:41.556Z,77.20
2022-07-30T15:37:08.441Z,77.80
2022-07-30T15:39:35.776Z,77.80
2022-07-30T15:42:03.759Z,76.00
2022-07-30T15:44:30.874Z,75.80
2022-07-30T15:46:58.691Z,74.40
2022-07-30T15:49:25.795Z,73.70
2022-07-30T15:51:53.018Z,72.60
2022-07-30T15:54:25.221Z,72.00
2022-07-30T15:57:01.037Z,72.70
2022-07-30T15:59:28.725Z,73.20
2022-07-30T16:01:55.398Z,73.90
2022-07-30T16:04:22.371Z,74.80
2022-07-30T16:07:00.346Z,75.70
2022-07-30T16:09:27.517Z,75.90
2022-07-30T16:11:54.390Z,77.10
2022-07-30T16:14:21.101Z,77.50
2022-07-30T16:16:47.789Z,76.80
2022-07-30T16:19:14.554Z,76.60
2022-07-30T16:21:41.484Z,76.90
2022-07-30T16:24:08.713Z,76.50
2022-07-30T16:26:37.148Z,76.00
2022-07-30T16:29:09.578Z,76.20
2022-07-30T16:31:40.072Z,75.20
2022-07-30T16:34:06.984Z,75.30
2022-07-30T16:36:33.797Z,75.60
2022-07-30T16:39:01.279Z,75.90
2022-07-30T16:41:28.309Z,77.10
2022-07-30T16:43:54.970Z,76.80
2022-07-30T16:46:21.732Z,75.40
2022-07-30T16:48:50.523Z,74.80
2022-07-30T16:51:17.727Z,75.90
2022-07-30T16:53:44.670Z,76.40
2022-07-30T16:56:11.432Z,76.60
2022-07-30T16:58:38.168Z,75.80
2022-07-30T17:01:04.961Z,76.20
2022-07-30T17:03:31.686Z,76.80
2022-07-30T17:05:58.427Z,78.10
2022-07-30T17:08:25.482Z,77.60
2022-07-30T17:10:53.221Z,77.80
2022-07-30T17:13:20.340Z,78.20
2022-07-30T17:15:47.898Z,79.20
2022-07-30T17:18:15.882Z,80.60
2022-07-30T17:20:42.845Z,81.60
2022-07-30T17:23:09.576Z,81.80
2022-07-30T17:25:36.342Z,83.00
2022-07-30T17:28:03.779Z,83.00
2022-07-30T17:30:30.775Z,84.20
2022-07-30T17:32:57.814Z,84.10
2022-07-30T17:35:27.407Z,84.60
2022-07-30T17:37:54.329Z,84.50
2022-07-30T17:40:28.771Z,84.80
2022-07-30T17:43:02.977Z,84.70
2022-07-30T17:45:30.653Z,84.90
2022-07-30T17:47:58.101Z,84.00
2022-07-30T17:50:27.182Z,84.70
2022-07-30T17:52:53.983Z,84.70
2022-07-30T17:55:20.765Z,84.60
2022-07-30T17:57:47.530Z,84.20
2022-07-30T18:00:14.577Z,84.30
2022-07-30T18:02:41.365Z,84.70
2022-07-30T18:05:10.543Z,84.70
2022-07-30T18:07:37.741Z,85.20
2022-07-30T18:10:04.913Z,85.20
2022-07-30T18:12:31.634Z,85.60
2022-07-30T18:14:59.558Z,85.80
2022-07-30T18:17:32.607Z,86.40
2022-07-30T18:19:59.325Z,86.30
2022-07-30T18:22:29.790Z,86.70
2022-07-30T18:25:00.546Z,86.90
2022-07-30T18:27:27.953Z,87.00
2022-07-30T18:29:54.745Z,87.80
2022-07-30T18:32:23.386Z,88.30
2022-07-30T18:34:50.251Z,88.40
2022-07-30T18:37:17.060Z,89.00
2022-07-30T18:39:44.117Z,89.50
2022-07-30T18:42:10.889Z,89.50
2022-07-30T18:44:38.260Z,89.60
2022-07-30T18:47:05.016Z,89.80
2022-07-30T18:49:37.208Z,90.20
2022-07-30T18:52:06.893Z,90.20
2022-07-30T18:54:34.910Z,90.20
2022-07-30T18:57:01.803Z,90.50
2022-07-30T18:59:31.574Z,90.80
2022-07-30T19:01:59.581Z,90.80
2022-07-30T19:04:26.571Z,90.80
2022-07-30T19:06:53.679Z,91.00
2022-07-30T19:09:23.432Z,91.00
2022-07-30T19:11:50.142Z,91.20
2022-07-30T19:14:16.972Z,91.20
2022-07-30T19:16:44.665Z,91.30
2022-07-30T19:19:13.726Z,91.50
2022-07-30T19:21:41.225Z,91.50
2022-07-30T19:24:08.727Z,91.60
2022-07-30T19:26:39.755Z,91.70
2022-07-30T19:29:08.166Z,92.10
2022-07-30T19:31:35.480Z,92.00
2022-07-30T19:34:02.474Z,92.10
2022-07-30T19:36:30.269Z,92.20
2022-07-30T19:38:58.884Z,92.50
2022-07-30T19:41:27.492Z,92.50
2022-07-30T19:43:57.950Z,92.70
2022-07-30T19:46:25.331Z,92.90
2022-07-30T19:48:55.051Z,92.90
2022-07-30T19:51:25.302Z,93.10
2022-07-30T19:54:08.943Z,93.20
2022-07-30T19:56:43.105Z,93.20
2022-07-30T19:59:15.150Z,93.30
2022-07-30T20:01:43.121Z,93.50
2022-07-30T20:04:11.276Z,93.60
2022-07-30T20:06:39.916Z,93.80
2022-07-30T20:09:14.614Z,93.90
2022-07-30T20:11:45.952Z,93.90
2022-07-30T20:17:02.344Z,94.10
2022-07-30T20:22:20.070Z,94.00
2022-07-30T20:24:48.603Z,94.20
2022-07-30T20:27:35.859Z,94.40
2022-07-30T20:30:05.994Z,94.50
2022-07-30T20:32:34.513Z,95.20
2022-07-30T20:35:01.506Z,95.50
2022-07-30T20:37:28.216Z,95.70
2022-07-30T20:39:55.838Z,96.60
2022-07-30T20:42:23.654Z,97.50
2022-07-30T20:44:53.374Z,97.30
2022-07-30T20:47:37.598Z,97.40
2022-07-30T20:50:10.136Z,98.20
2022-07-30T20:52:40.384Z,98.50
2022-07-30T20:55:14.328Z,98.90
2022-07-30T20:58:00.439Z,99.10
2022-07-30T21:00:34.623Z,99.20
2022-07-30T21:03:03.650Z,99.00
2022-07-30T21:05:30.535Z,98.80
2022-07-30T21:07:58.335Z,98.60
2022-07-30T21:10:25.498Z,98.60
2022-07-30T21:12:56.438Z,98.60
2022-07-30T21:15:26.248Z,98.30
2022-07-30T21:17:54.401Z,98.40
2022-07-30T21:20:26.612Z,98.90
2022-07-30T21:23:05.291Z,98.60
2022-07-30T21:25:33.475Z,98.80
2022-07-30T21:28:10.936Z,99.60
2022-07-30T21:30:54.113Z,99.90
2022-07-30T21:33:24.328Z,99.90
2022-07-30T21:35:57.081Z,99.90
2022-07-30T21:38:26.847Z,99.90
2022-07-30T21:40:53.874Z,99.90
2022-07-30T21:43:28.726Z,99.90
2022-07-30T21:45:57.709Z,99.90
2022-07-30T21:48:28.546Z,99.90
2022-07-30T21:50:55.776Z,99.90
2022-07-30T21:53:29.762Z,99.90
2022-07-30T21:56:10.587Z,99.90
2022-07-30T21:58:38.812Z,99.90
2022-07-30T22:01:17.430Z,99.90
2022-07-30T22:04:01.552Z,99.90
2022-07-30T22:06:41.199Z,99.90
2022-07-30T22:09:19.792Z,99.90
2022-07-30T22:12:00.701Z,99.90
2022-07-30T22:14:31.622Z,99.90
2022-07-30T22:16:58.449Z,99.90
2022-07-30T22:19:26.001Z,99.90
2022-07-30T22:21:52.938Z,99.90
2022-07-30T22:24:29.766Z,99.90
2022-07-30T22:27:01.728Z,99.90
2022-07-30T22:29:40.671Z,99.90
2022-07-30T22:32:09.586Z,99.90
2022-07-30T22:34:36.287Z,99.90
2022-07-30T22:37:03.081Z,99.90
2022-07-30T22:39:31.670Z,99.90
2022-07-30T22:42:00.628Z,99.90
2022-07-30T22:44:28.017Z,99.90
2022-07-30T22:46:56.205Z,99.90
2022-07-30T22:49:46.072Z,99.90
2022-07-30T22:52:13.452Z,99.90
2022-07-30T22:54:46.147Z,99.90
2022-07-30T22:57:17.696Z,99.90
2022-07-30T23:00:00.238Z,99.90
2022-07-30T23:02:28.078Z,99.90
2022-07-30T23:04:54.976Z,99.90
2022-07-30T23:07:23.377Z,99.90
2022-07-30T23:09:51.938Z,99.90
2022-07-30T23:12:17.040Z,94.10
2022-07-30T23:12:17.805Z,94.10
2022-07-30T23:12:20.292Z,99.90
2022-07-30T23:14:47.841Z,99.90
2022-07-30T23:17:14.844Z,99.90
2022-07-30T23:19:44.362Z,99.90
2022-07-30T23:22:11.069Z,99.90
2022-07-30T23:24:37.829Z,99.90
2022-07-30T23:27:05.062Z,99.90
2022-07-30T23:29:31.994Z,99.90
2022-07-30T23:32:01.079Z,99.90
2022-07-30T23:34:30.125Z,99.90
2022-07-30T23:36:56.907Z,99.90
2022-07-30T23:39:24.415Z,99.90
2022-07-30T23:41:51.331Z,99.90
2022-07-30T23:44:18.137Z,99.90
2022-07-30T23:46:44.765Z,99.90
2022-07-30T23:49:11.498Z,99.90
2022-07-30T23:51:41.502Z,99.90
2022-07-30T23:54:08.346Z,99.90
2022-07-30T23:56:39.038Z,99.90
2022-07-30T23:59:05.794Z,99.90
